Terminal Aerodrome Forecast
Issued by NWS Huntsville, AL

Home | Current Version | Previous Version | Text Only | Print | Product List | Glossary On
Versions: 1 2 3 4 5 6 7 8 9 10 11 12 13 14 15 16 17 18 19 20 21
000
FTUS44 KHUN 201131
TAFMSL
TAF
KMSL 201131Z 2012/2112 22005KT P6SM SCT012 BKN020
      TEMPO 2012/2014 BKN012
     FM201800 20011KT P6SM BKN020
     FM202100 17007KT P6SM SCT030
     FM210200 17004KT 4SM BR SCT009 BKN120=

USA.gov is the U.S. government's official web portal to all federal, state and local government web resources and services.